createdAt,value
2023-01-22T00:00:43.106Z,-4.5
2023-01-22T00:01:43.089Z,-4.33
2023-01-22T00:02:43.149Z,-4.33
2023-01-22T00:03:45.580Z,-4.33
2023-01-22T00:04:43.102Z,-4.5
2023-01-22T00:05:43.107Z,-4.61
2023-01-22T00:06:43.083Z,-4.33
2023-01-22T00:07:43.092Z,-4.5
2023-01-22T00:08:43.093Z,-4.33
2023-01-22T00:09:43.091Z,-4.61
2023-01-22T00:10:43.087Z,-4.33
2023-01-22T00:11:43.073Z,-4.33
2023-01-22T00:12:43.094Z,-4.5
2023-01-22T00:13:43.108Z,-4.33
2023-01-22T00:14:43.164Z,-4.5
2023-01-22T00:15:43.120Z,-4.61
2023-01-22T00:16:43.087Z,-4.33
2023-01-22T00:17:43.122Z,-4.5
2023-01-22T00:18:43.134Z,-4.5
2023-01-22T00:19:43.084Z,-4.5
2023-01-22T00:20:43.088Z,-4.5
2023-01-22T00:21:43.080Z,-4.33
2023-01-22T00:22:43.087Z,-4.61
2023-01-22T00:23:43.099Z,-4.61
2023-01-22T00:24:43.132Z,-4.78
2023-01-22T00:25:43.103Z,-4.5
2023-01-22T00:26:43.106Z,-4.61
2023-01-22T00:27:43.083Z,-4.61
2023-01-22T00:28:43.085Z,-4.5
2023-01-22T00:29:43.089Z,-4.5
2023-01-22T00:30:43.083Z,-4.33
2023-01-22T00:31:43.157Z,-4.5
2023-01-22T00:32:43.082Z,-4.5
2023-01-22T00:33:43.086Z,-4.94
2023-01-22T00:34:43.107Z,-4.78
2023-01-22T00:35:43.088Z,-4.33
2023-01-22T00:36:43.088Z,-4.61
2023-01-22T00:37:43.091Z,-4.33
2023-01-22T00:38:43.105Z,-4.5
2023-01-22T00:39:43.093Z,-4.33
2023-01-22T00:40:43.096Z,-4.61
2023-01-22T00:41:43.090Z,-4.78
2023-01-22T00:42:43.080Z,-4.78
2023-01-22T00:43:43.097Z,-4.78
2023-01-22T00:44:43.083Z,-4.78
2023-01-22T00:45:43.090Z,-4.94
2023-01-22T00:46:43.185Z,-4.94
2023-01-22T00:47:43.087Z,-4.94
2023-01-22T00:48:43.081Z,-4.94
2023-01-22T00:49:43.087Z,-4.78
2023-01-22T00:50:43.127Z,-4.78
2023-01-22T00:51:43.085Z,-5.22
2023-01-22T00:52:43.083Z,-5.06
2023-01-22T00:53:43.084Z,-5.06
2023-01-22T00:54:43.097Z,-4.78
2023-01-22T00:55:43.084Z,-4.78
2023-01-22T00:56:43.085Z,-4.78
2023-01-22T00:57:43.083Z,-4.78
2023-01-22T00:58:43.094Z,-4.94
2023-01-22T00:59:43.098Z,-4.94
2023-01-22T01:00:43.106Z,-4.94
2023-01-22T01:01:43.143Z,-4.94
2023-01-22T01:02:43.083Z,-4.94
2023-01-22T01:03:43.087Z,-4.78
2023-01-22T01:04:43.081Z,-4.61
2023-01-22T01:05:43.097Z,-4.94
2023-01-22T01:06:43.090Z,-4.78
2023-01-22T01:07:43.084Z,-4.94
2023-01-22T01:08:43.109Z,-4.94
2023-01-22T01:09:43.089Z,-5.06
2023-01-22T01:10:43.100Z,-5.06
2023-01-22T01:11:43.086Z,-4.94
2023-01-22T01:12:43.218Z,-4.78
2023-01-22T01:13:43.282Z,-5.06
2023-01-22T01:14:43.085Z,-4.94
2023-01-22T01:15:43.154Z,-5.22
2023-01-22T01:16:43.159Z,-4.94
2023-01-22T01:17:43.092Z,-5.06
2023-01-22T01:18:43.090Z,-4.94
2023-01-22T01:19:43.089Z,-4.94
2023-01-22T01:20:43.112Z,-4.78
2023-01-22T01:21:43.093Z,-4.94
2023-01-22T01:22:43.092Z,-5.06
2023-01-22T01:23:43.108Z,-5.39
2023-01-22T01:24:43.090Z,-5.22
2023-01-22T01:25:43.086Z,-4.78
2023-01-22T01:26:43.093Z,-4.78
2023-01-22T01:27:43.133Z,-4.94
2023-01-22T01:28:43.221Z,-4.94
2023-01-22T01:29:43.087Z,-5.06
2023-01-22T01:30:43.096Z,-5.22
2023-01-22T01:31:43.135Z,-5.22
2023-01-22T01:32:43.120Z,-4.94
2023-01-22T01:33:43.105Z,-5.22
2023-01-22T01:34:43.101Z,-5.22
2023-01-22T01:35:43.097Z,-5.22
2023-01-22T01:36:50.180Z,-5.22
2023-01-22T01:37:43.089Z,-5.22
2023-01-22T01:38:43.094Z,-5.06
2023-01-22T01:39:43.099Z,-5.22
2023-01-22T01:40:43.091Z,-5.22
2023-01-22T01:41:43.107Z,-5.39
2023-01-22T01:42:43.090Z,-5.06
2023-01-22T01:43:43.106Z,-5.22
2023-01-22T01:44:43.206Z,-5.22
2023-01-22T01:45:43.088Z,-5.22
2023-01-22T01:46:43.119Z,-5.22
2023-01-22T01:47:43.106Z,-5.22
2023-01-22T01:48:43.082Z,-5.22
2023-01-22T01:49:43.140Z,-5.22
2023-01-22T01:50:43.091Z,-5.39
2023-01-22T01:51:43.100Z,-5.39
2023-01-22T01:52:43.088Z,-5.22
2023-01-22T01:53:43.117Z,-5.39
2023-01-22T01:54:43.093Z,-5.22
2023-01-22T01:55:43.103Z,-5.56
2023-01-22T01:56:43.094Z,-5.39
2023-01-22T01:57:43.088Z,-5.39
2023-01-22T01:58:43.112Z,-5.39
2023-01-22T01:59:43.104Z,-5.39
2023-01-22T02:00:43.421Z,-5.22
2023-01-22T02:01:43.112Z,-5.56
2023-01-22T02:02:43.105Z,-5.22
2023-01-22T02:03:43.109Z,-5.39
2023-01-22T02:04:43.091Z,-5.39
2023-01-22T02:05:43.096Z,-5.22
2023-01-22T02:06:43.098Z,-5.22
2023-01-22T02:07:43.118Z,-5.72
2023-01-22T02:08:43.089Z,-5.83
2023-01-22T02:09:43.088Z,-5.72
2023-01-22T02:10:43.091Z,-6
2023-01-22T02:11:43.099Z,-5.72
2023-01-22T02:12:43.094Z,-5.72
2023-01-22T02:13:43.096Z,-5.72
2023-01-22T02:14:43.129Z,-5.72
2023-01-22T02:15:43.120Z,-5.72
2023-01-22T02:16:43.284Z,-6
2023-01-22T02:17:43.091Z,-5.56
2023-01-22T02:18:43.100Z,-5.56
2023-01-22T02:19:43.091Z,-5.72
2023-01-22T02:20:43.097Z,-6
2023-01-22T02:21:43.122Z,-6.11
2023-01-22T02:22:43.099Z,-6
2023-01-22T02:23:43.103Z,-6.44
2023-01-22T02:24:43.099Z,-6.11
2023-01-22T02:25:43.089Z,-6
2023-01-22T02:26:43.086Z,-6.11
2023-01-22T02:27:43.125Z,-6.11
2023-01-22T02:28:43.110Z,-6.72
2023-01-22T02:29:43.099Z,-6.28
2023-01-22T02:30:43.177Z,-6.11
2023-01-22T02:31:43.158Z,-6
2023-01-22T02:32:43.242Z,-6.11
2023-01-22T02:33:43.101Z,-5.72
2023-01-22T02:34:43.120Z,-6.11
2023-01-22T02:35:43.095Z,-5.72
2023-01-22T02:36:43.107Z,-5.72
2023-01-22T02:37:43.117Z,-5.83
2023-01-22T02:38:43.104Z,-5.72
2023-01-22T02:39:43.107Z,-5.83
2023-01-22T02:40:43.101Z,-5.72
2023-01-22T02:41:43.097Z,-5.72
2023-01-22T02:42:43.107Z,-5.83
2023-01-22T02:43:43.121Z,-6
2023-01-22T02:44:43.123Z,-6.44
2023-01-22T02:45:43.161Z,-5.83
2023-01-22T02:46:43.151Z,-5.72
2023-01-22T02:47:43.104Z,-5.22
2023-01-22T02:48:43.217Z,-5.56
2023-01-22T02:49:43.097Z,-5.56
2023-01-22T02:50:43.107Z,-5.56
2023-01-22T02:51:43.183Z,-5.22
2023-01-22T02:52:43.094Z,-5.39
2023-01-22T02:53:43.109Z,-5.39
2023-01-22T02:54:43.097Z,-5.72
2023-01-22T02:55:43.110Z,-5.39
2023-01-22T02:56:43.106Z,-5.39
2023-01-22T02:57:43.119Z,-5.83
2023-01-22T02:58:43.119Z,-6.11
2023-01-22T02:59:43.108Z,-6.11
2023-01-22T03:00:43.157Z,-6.28
2023-01-22T03:01:43.098Z,-6.11
2023-01-22T03:02:43.099Z,-6.11
2023-01-22T03:03:43.154Z,-6.11
2023-01-22T03:04:49.073Z,-6.11
2023-01-22T03:05:43.206Z,-6.11
2023-01-22T03:06:43.113Z,-6.11
2023-01-22T03:07:43.098Z,-6.11
2023-01-22T03:08:43.115Z,-6
2023-01-22T03:09:43.089Z,-5.83
2023-01-22T03:10:43.092Z,-5.72
2023-01-22T03:11:43.097Z,-5.83
2023-01-22T03:12:43.112Z,-6
2023-01-22T03:13:43.112Z,-6
2023-01-22T03:14:43.118Z,-6.11
2023-01-22T03:15:43.116Z,-5.72
2023-01-22T03:16:43.184Z,-5.72
2023-01-22T03:17:43.096Z,-5.72
2023-01-22T03:18:43.093Z,-6.11
2023-01-22T03:19:43.103Z,-5.72
2023-01-22T03:20:43.097Z,-5.83
2023-01-22T03:21:43.221Z,-6.11
2023-01-22T03:22:43.094Z,-5.72
2023-01-22T03:23:43.103Z,-5.72
2023-01-22T03:24:43.107Z,-6.28
2023-01-22T03:25:43.095Z,-6.61
2023-01-22T03:26:43.098Z,-6.11
2023-01-22T03:27:43.103Z,-6.11
2023-01-22T03:28:43.118Z,-5.83
2023-01-22T03:29:43.103Z,-5.72
2023-01-22T03:30:43.121Z,-5.83
2023-01-22T03:31:43.170Z,-5.83
2023-01-22T03:32:43.103Z,-5.72
2023-01-22T03:33:43.122Z,-5.83
2023-01-22T03:34:43.099Z,-5.83
2023-01-22T03:35:43.107Z,-5.72
2023-01-22T03:36:43.105Z,-5.56
2023-01-22T03:37:43.228Z,-5.39
2023-01-22T03:38:43.098Z,-5.56
2023-01-22T03:39:43.112Z,-5.22
2023-01-22T03:40:43.104Z,-5.39
2023-01-22T03:41:43.099Z,-5.39
2023-01-22T03:42:43.109Z,-5.22
2023-01-22T03:43:43.107Z,-5.56
2023-01-22T03:44:43.122Z,-5.22
2023-01-22T03:45:43.124Z,-5.39
2023-01-22T03:46:43.096Z,-5.72
2023-01-22T03:47:43.097Z,-5.39
2023-01-22T03:48:43.110Z,-5.56
2023-01-22T03:49:43.117Z,-5.56
2023-01-22T03:50:43.096Z,-5.56
2023-01-22T03:51:43.108Z,-5.72
2023-01-22T03:52:43.108Z,-5.22
2023-01-22T03:53:43.224Z,-5.39
2023-01-22T03:54:43.112Z,-5.56
2023-01-22T03:55:43.107Z,-6
2023-01-22T03:56:43.117Z,-5.83
2023-01-22T03:57:43.112Z,-5.56
2023-01-22T03:58:43.120Z,-5.72
2023-01-22T03:59:43.115Z,-6.11
2023-01-22T04:00:43.116Z,-6.11
2023-01-22T04:01:43.117Z,-6.89
2023-01-22T04:02:43.165Z,-6.44
2023-01-22T04:03:43.131Z,-6.28
2023-01-22T04:04:43.194Z,-6.44
2023-01-22T04:05:43.124Z,-6.61
2023-01-22T04:06:43.115Z,-6.44
2023-01-22T04:07:43.107Z,-6.61
2023-01-22T04:08:43.118Z,-6.72
2023-01-22T04:09:43.238Z,-6.11
2023-01-22T04:10:43.128Z,-6.61
2023-01-22T04:11:43.122Z,-6.28
2023-01-22T04:12:43.126Z,-6.61
2023-01-22T04:13:43.129Z,-6.44
2023-01-22T04:14:43.154Z,-6.28
2023-01-22T04:15:43.119Z,-6.11
2023-01-22T04:16:43.231Z,-6
2023-01-22T04:17:43.130Z,-6.11
2023-01-22T04:18:43.120Z,-5.83
2023-01-22T04:19:43.131Z,-6.44
2023-01-22T04:20:43.136Z,-6
2023-01-22T04:21:43.138Z,-6.28
2023-01-22T04:22:43.131Z,-5.72
2023-01-22T04:23:43.133Z,-5.83
2023-01-22T04:24:43.121Z,-6.28
2023-01-22T04:25:43.260Z,-6
2023-01-22T04:26:43.138Z,-6
2023-01-22T04:27:43.131Z,-6
2023-01-22T04:28:43.140Z,-6.11
2023-01-22T04:29:43.139Z,-6
2023-01-22T04:30:43.329Z,-6
2023-01-22T04:31:43.157Z,-5.83
2023-01-22T04:32:43.123Z,-6.11
2023-01-22T04:33:43.129Z,-6
2023-01-22T04:34:43.143Z,-6
2023-01-22T04:35:43.160Z,-6
2023-01-22T04:36:43.130Z,-5.83
2023-01-22T04:37:43.161Z,-6.11
2023-01-22T04:38:43.142Z,-6.11
2023-01-22T04:39:43.137Z,-5.83
2023-01-22T04:40:43.135Z,-6.11
2023-01-22T04:41:43.266Z,-6
2023-01-22T04:42:43.150Z,-6
2023-01-22T04:43:43.139Z,-6
2023-01-22T04:44:43.148Z,-6
2023-01-22T04:45:43.193Z,-6.28
2023-01-22T04:46:43.151Z,-6.44
2023-01-22T04:47:43.182Z,-5.83
2023-01-22T04:48:43.202Z,-6.28
2023-01-22T04:49:43.153Z,-6
2023-01-22T04:50:44.929Z,-6.11
2023-01-22T04:51:43.150Z,-6.28
2023-01-22T04:52:43.149Z,-6.28
2023-01-22T04:53:43.148Z,-6.44
2023-01-22T04:54:43.149Z,-6.61
2023-01-22T04:55:43.153Z,-7.06
2023-01-22T04:56:43.147Z,-6.72
2023-01-22T04:57:43.258Z,-6.61
2023-01-22T04:58:43.181Z,-6.72
2023-01-22T04:59:43.140Z,-7.06
2023-01-22T05:00:43.221Z,-6.28
2023-01-22T05:01:43.211Z,-6.61
2023-01-22T05:02:43.191Z,-6.61
2023-01-22T05:03:43.168Z,-6.72
2023-01-22T05:04:43.156Z,-6.61
2023-01-22T05:05:43.145Z,-6.28
2023-01-22T05:06:43.160Z,-6.44
2023-01-22T05:07:43.155Z,-6.11
2023-01-22T05:08:43.195Z,-6.11
2023-01-22T05:09:43.154Z,-6.11
2023-01-22T05:10:43.144Z,-6
2023-01-22T05:11:43.150Z,-5.83
2023-01-22T05:12:43.152Z,-6
2023-01-22T05:13:43.275Z,-5.83
2023-01-22T05:14:43.144Z,-5.72
2023-01-22T05:15:43.232Z,-5.72
2023-01-22T05:16:43.161Z,-5.56
2023-01-22T05:17:43.155Z,-6
2023-01-22T05:18:43.154Z,-5.72
2023-01-22T05:19:43.166Z,-5.83
2023-01-22T05:20:43.159Z,-6.28
2023-01-22T05:21:43.173Z,-6
2023-01-22T05:22:43.160Z,-5.83
2023-01-22T05:23:43.155Z,-5.72
2023-01-22T05:24:43.166Z,-5.39
2023-01-22T05:25:43.165Z,-6
2023-01-22T05:26:43.163Z,-5.72
2023-01-22T05:27:43.172Z,-5.83
2023-01-22T05:28:43.158Z,-6.11
2023-01-22T05:29:43.293Z,-5.72
2023-01-22T05:30:43.313Z,-6.11
2023-01-22T05:31:43.218Z,-6
2023-01-22T05:32:43.170Z,-6.11
2023-01-22T05:33:43.190Z,-6.11
2023-01-22T05:34:43.158Z,-6.11
2023-01-22T05:35:43.169Z,-6.28
2023-01-22T05:36:43.185Z,-6.11
2023-01-22T05:37:43.183Z,-6.11
2023-01-22T05:38:43.170Z,-6.61
2023-01-22T05:39:43.183Z,-6.28
2023-01-22T05:40:43.175Z,-6.28
2023-01-22T05:41:43.180Z,-6.44
2023-01-22T05:42:43.177Z,-6.11
2023-01-22T05:43:43.170Z,-6.11
2023-01-22T05:44:43.165Z,-6.11
2023-01-22T05:45:43.294Z,-6.28
2023-01-22T05:46:43.187Z,-6
2023-01-22T05:47:43.179Z,-6.11
2023-01-22T05:48:43.171Z,-6.28
2023-01-22T05:49:43.172Z,-6.11
2023-01-22T05:50:43.181Z,-6.61
2023-01-22T05:51:43.180Z,-6.11
2023-01-22T05:52:43.176Z,-6.61
2023-01-22T05:53:43.199Z,-6
2023-01-22T05:54:43.185Z,-6.11
2023-01-22T05:55:43.198Z,-6.11
2023-01-22T05:56:43.187Z,-5.83
2023-01-22T05:57:43.197Z,-5.83
2023-01-22T05:58:43.183Z,-5.83
2023-01-22T05:59:43.177Z,-5.83
2023-01-22T06:00:43.178Z,-5.83
2023-01-22T06:01:43.303Z,-5.56
2023-01-22T06:02:43.251Z,-5.56
2023-01-22T06:03:43.183Z,-6.28
2023-01-22T06:04:43.187Z,-5.56
2023-01-22T06:05:43.196Z,-6
2023-01-22T06:06:43.182Z,-6
2023-01-22T06:07:43.190Z,-6.11
2023-01-22T06:08:43.178Z,-5.83
2023-01-22T06:09:43.198Z,-6
2023-01-22T06:10:43.200Z,-6.28
2023-01-22T06:11:43.197Z,-6
2023-01-22T06:12:43.223Z,-6
2023-01-22T06:13:43.195Z,-5.83
2023-01-22T06:14:43.201Z,-6.11
2023-01-22T06:15:43.226Z,-6.28
2023-01-22T06:16:43.188Z,-6.44
2023-01-22T06:17:43.299Z,-6
2023-01-22T06:18:43.193Z,-6.11
2023-01-22T06:19:43.196Z,-6.11
2023-01-22T06:20:43.198Z,-6.11
2023-01-22T06:21:43.204Z,-6.11
2023-01-22T06:22:43.212Z,-6.11
2023-01-22T06:23:43.191Z,-6.61
2023-01-22T06:24:43.198Z,-6
2023-01-22T06:25:43.190Z,-6.11
2023-01-22T06:26:43.200Z,-6.11
2023-01-22T06:27:43.191Z,-6
2023-01-22T06:28:43.196Z,-6.61
2023-01-22T06:29:43.199Z,-6.11
2023-01-22T06:30:43.264Z,-6.11
2023-01-22T06:31:43.236Z,-6.11
2023-01-22T06:32:43.192Z,-6.28
2023-01-22T06:33:43.306Z,-6.44
2023-01-22T06:34:43.205Z,-6.11
2023-01-22T06:35:43.200Z,-6
2023-01-22T06:36:43.671Z,-6
2023-01-22T06:37:43.202Z,-5.83
2023-01-22T06:38:43.220Z,-6.11
2023-01-22T06:39:43.194Z,-6.11
2023-01-22T06:40:43.200Z,-6.11
2023-01-22T06:41:43.197Z,-6
2023-01-22T06:42:43.202Z,-5.83
2023-01-22T06:43:43.192Z,-6.44
2023-01-22T06:44:43.200Z,-5.72
2023-01-22T06:45:43.196Z,-6
2023-01-22T06:46:43.325Z,-5.83
2023-01-22T06:47:43.193Z,-6.11
2023-01-22T06:48:43.201Z,-6
2023-01-22T06:49:43.327Z,-6.28
2023-01-22T06:50:43.196Z,-5.72
2023-01-22T06:51:43.191Z,-5.83
2023-01-22T06:52:43.196Z,-5.72
2023-01-22T06:53:43.210Z,-6.11
2023-01-22T06:54:43.199Z,-6
2023-01-22T06:55:43.200Z,-6.11
2023-01-22T06:56:43.209Z,-6.11
2023-01-22T06:57:43.201Z,-6.11
2023-01-22T06:58:43.207Z,-6
2023-01-22T06:59:43.214Z,-6.28
2023-01-22T07:00:43.216Z,-6.44
2023-01-22T07:01:43.224Z,-6
2023-01-22T07:02:43.201Z,-5.83
2023-01-22T07:03:43.259Z,-5.83
2023-01-22T07:04:43.201Z,-5.83
2023-01-22T07:05:43.381Z,-5.72
2023-01-22T07:06:43.205Z,-5.72
2023-01-22T07:07:43.199Z,-5.72
2023-01-22T07:08:43.202Z,-6
2023-01-22T07:09:43.211Z,-5.56
2023-01-22T07:10:43.224Z,-5.56
2023-01-22T07:11:43.217Z,-5.22
2023-01-22T07:12:43.205Z,-5.56
2023-01-22T07:13:43.213Z,-5.22
2023-01-22T07:14:43.232Z,-5.22
2023-01-22T07:15:43.246Z,-5.39
2023-01-22T07:16:43.210Z,-5.22
2023-01-22T07:17:43.216Z,-5.22
2023-01-22T07:18:43.220Z,-5.22
2023-01-22T07:19:43.234Z,-5.06
2023-01-22T07:20:43.201Z,-5.06
2023-01-22T07:21:43.323Z,-4.94
2023-01-22T07:22:43.222Z,-5.06
2023-01-22T07:23:43.209Z,-5.06
2023-01-22T07:24:43.208Z,-4.78
2023-01-22T07:25:43.226Z,-4.78
2023-01-22T07:26:43.218Z,-5.06
2023-01-22T07:27:43.215Z,-4.5
2023-01-22T07:28:43.217Z,-4.61
2023-01-22T07:29:43.210Z,-4.33
2023-01-22T07:30:43.255Z,-4.61
2023-01-22T07:31:43.321Z,-4.61
2023-01-22T07:32:43.213Z,-5.06
2023-01-22T07:33:43.269Z,-4.94
2023-01-22T07:34:43.213Z,-5.06
2023-01-22T07:35:43.220Z,-5.56
2023-01-22T07:36:43.232Z,-4.78
2023-01-22T07:37:43.344Z,-4.94
2023-01-22T07:38:43.217Z,-4.78
2023-01-22T07:39:43.231Z,-5.06
2023-01-22T07:40:43.226Z,-5.22
2023-01-22T07:41:43.208Z,-5.06
2023-01-22T07:42:43.227Z,-5.06
2023-01-22T07:43:43.231Z,-4.94
2023-01-22T07:44:43.211Z,-5.06
2023-01-22T07:45:43.221Z,-4.78
2023-01-22T07:46:43.241Z,-5.22
2023-01-22T07:47:43.225Z,-4.78
2023-01-22T07:48:45.607Z,-4.5
2023-01-22T07:49:43.232Z,-4.5
2023-01-22T07:50:43.232Z,-4.78
2023-01-22T07:51:43.232Z,-5.06
2023-01-22T07:52:43.222Z,-4.78
2023-01-22T07:53:43.346Z,-4.94
2023-01-22T07:54:43.233Z,-5.22
2023-01-22T07:55:43.246Z,-5.22
2023-01-22T07:56:43.227Z,-5.22
2023-01-22T07:57:43.218Z,-5.22
2023-01-22T07:58:43.234Z,-5.06
2023-01-22T07:59:43.239Z,-5.06
2023-01-22T08:00:43.252Z,-5.22
2023-01-22T08:01:43.275Z,-4.94
2023-01-22T08:02:43.244Z,-5.22
2023-01-22T08:03:43.236Z,-5.06
2023-01-22T08:04:43.404Z,-5.06
2023-01-22T08:05:43.243Z,-4.78
2023-01-22T08:06:43.229Z,-4.33
2023-01-22T08:07:43.288Z,-4.5
2023-01-22T08:08:43.225Z,-4.5
2023-01-22T08:09:43.355Z,-4.78
2023-01-22T08:10:43.237Z,-4.22
2023-01-22T08:11:43.224Z,-4.22
2023-01-22T08:12:45.210Z,-4.33
2023-01-22T08:13:43.228Z,-4.22
2023-01-22T08:14:43.241Z,-4.22
2023-01-22T08:15:43.231Z,-3.89
2023-01-22T08:16:43.327Z,-3.89
2023-01-22T08:17:43.257Z,-3.89
2023-01-22T08:18:43.258Z,-4.06
2023-01-22T08:19:43.249Z,-4.22
2023-01-22T08:20:43.230Z,-4.5
2023-01-22T08:21:43.249Z,-4.33
2023-01-22T08:22:43.237Z,-4.94
2023-01-22T08:23:46.210Z,-4.94
2023-01-22T08:24:43.247Z,-4.61
2023-01-22T08:25:43.353Z,-4.78
2023-01-22T08:26:43.243Z,-4.5
2023-01-22T08:27:43.240Z,-4.33
2023-01-22T08:28:43.254Z,-4.78
2023-01-22T08:29:43.234Z,-4.06
2023-01-22T08:30:46.291Z,-4.33
2023-01-22T08:31:43.337Z,-4.61
2023-01-22T08:32:43.240Z,-4.5
2023-01-22T08:33:43.246Z,-4.5
2023-01-22T08:34:43.241Z,-4.33
2023-01-22T08:35:43.239Z,-4.06
2023-01-22T08:36:43.286Z,-3.89
2023-01-22T08:37:43.248Z,-3.89
2023-01-22T08:38:43.281Z,-3.89
2023-01-22T08:39:43.245Z,-4.33
2023-01-22T08:40:43.237Z,-3.44
2023-01-22T08:41:43.357Z,-3.28
2023-01-22T08:42:43.262Z,-3.28
2023-01-22T08:43:43.248Z,-3.17
2023-01-22T08:44:43.242Z,-2.72
2023-01-22T08:45:43.278Z,-2.89
2023-01-22T08:46:43.244Z,-2.72
2023-01-22T08:47:43.249Z,-2.61
2023-01-22T08:48:43.338Z,-2.89
2023-01-22T08:49:43.244Z,-2.89
2023-01-22T08:50:43.260Z,-3.06
2023-01-22T08:51:43.293Z,-3.06
2023-01-22T08:52:43.254Z,-3.17
2023-01-22T08:53:43.236Z,-3.06
2023-01-22T08:54:43.258Z,-2.89
2023-01-22T08:55:43.250Z,-2.89
2023-01-22T08:56:43.252Z,-3.06
2023-01-22T08:57:43.373Z,-2.89
2023-01-22T08:58:43.265Z,-3.17
2023-01-22T08:59:49.577Z,-3.44
2023-01-22T09:00:43.314Z,-4.61
2023-01-22T09:01:43.261Z,-4.61
2023-01-22T09:02:43.267Z,-4.61
2023-01-22T09:03:43.284Z,-4.94
2023-01-22T09:04:43.271Z,-4.78
2023-01-22T09:05:43.262Z,-4.61
2023-01-22T09:06:43.324Z,-4.78
2023-01-22T09:07:43.261Z,-4.61
2023-01-22T09:08:43.364Z,-4.78
2023-01-22T09:09:43.280Z,-4.78
2023-01-22T09:10:43.271Z,-4.78
2023-01-22T09:11:43.269Z,-4.78
2023-01-22T09:12:43.340Z,-4.78
2023-01-22T09:13:43.381Z,-4.61
2023-01-22T09:14:43.262Z,-4.5
2023-01-22T09:15:43.267Z,-4.61
2023-01-22T09:16:43.335Z,-4.33
2023-01-22T09:17:43.260Z,-4.33
2023-01-22T09:18:43.266Z,-5.06
2023-01-22T09:19:43.313Z,-4.61
2023-01-22T09:20:43.272Z,-4.33
2023-01-22T09:21:43.268Z,-4.5
2023-01-22T09:22:43.260Z,-4.33
2023-01-22T09:23:43.260Z,-4.22
2023-01-22T09:24:43.256Z,-4.5
2023-01-22T09:25:43.283Z,-4.22
2023-01-22T09:26:43.271Z,-4.06
2023-01-22T09:27:43.286Z,-3.72
2023-01-22T09:28:43.285Z,-3.61
2023-01-22T09:29:43.494Z,-3.44
2023-01-22T09:30:43.309Z,-3.44
2023-01-22T09:31:43.340Z,-3.17
2023-01-22T09:32:43.271Z,-2.61
2023-01-22T09:33:43.281Z,-2.61
2023-01-22T09:34:43.264Z,-1.83
2023-01-22T09:35:43.285Z,-2.17
2023-01-22T09:36:43.277Z,-1.83
2023-01-22T09:37:43.287Z,-1.67
2023-01-22T09:38:43.274Z,-1.67
2023-01-22T09:39:43.279Z,-2.28
2023-01-22T09:40:43.281Z,-2.61
2023-01-22T09:41:43.267Z,-3.61
2023-01-22T09:42:43.321Z,-3.89
2023-01-22T09:43:43.275Z,-4.5
2023-01-22T09:44:43.281Z,-4.61
2023-01-22T09:45:51.303Z,-4.5
2023-01-22T09:46:43.386Z,-4.33
2023-01-22T09:47:43.268Z,-4.5
2023-01-22T09:48:43.274Z,-4.78
2023-01-22T09:49:43.320Z,-4.78
2023-01-22T09:50:43.264Z,-4.78
2023-01-22T09:51:43.271Z,-4.78
2023-01-22T09:52:43.283Z,-4.94
2023-01-22T09:53:43.263Z,-4.94
2023-01-22T09:54:43.268Z,-5.22
2023-01-22T09:55:43.271Z,-4.78
2023-01-22T09:56:43.272Z,-5.06
2023-01-22T09:57:43.268Z,-4.5
2023-01-22T09:58:43.280Z,-4.33
2023-01-22T09:59:43.290Z,-4.22
2023-01-22T10:00:43.276Z,-4.06
2023-01-22T10:01:43.266Z,-4.06
2023-01-22T10:02:43.454Z,-4.33
2023-01-22T10:03:43.271Z,-4.33
2023-01-22T10:04:43.277Z,-4.33
2023-01-22T10:05:43.278Z,-4.5
2023-01-22T10:06:43.268Z,-4.33
2023-01-22T10:07:43.274Z,-4.5
2023-01-22T10:08:43.271Z,-4.33
2023-01-22T10:09:43.285Z,-4.5
2023-01-22T10:10:43.269Z,-4.33
2023-01-22T10:11:43.287Z,-4.06
2023-01-22T10:12:43.284Z,-3.72
2023-01-22T10:13:43.288Z,-3.06
2023-01-22T10:14:43.267Z,-2.72
2023-01-22T10:15:43.271Z,-2.89
2023-01-22T10:16:43.397Z,-2.61
2023-01-22T10:17:43.277Z,-2.17
2023-01-22T10:18:43.409Z,-1.83
2023-01-22T10:19:43.270Z,-2.17
2023-01-22T10:20:43.273Z,-1.67
2023-01-22T10:21:43.287Z,-1.56
2023-01-22T10:22:43.280Z,-0.67
2023-01-22T10:23:43.288Z,-0.39
2023-01-22T10:24:43.282Z,-0.28
2023-01-22T10:25:43.292Z,-0.28
2023-01-22T10:26:43.279Z,-0.56
2023-01-22T10:27:43.285Z,-0.28
2023-01-22T10:28:43.272Z,-0.28
2023-01-22T10:29:43.277Z,-0.56
2023-01-22T10:30:43.373Z,-0.39
2023-01-22T10:31:43.388Z,-0.39
2023-01-22T10:32:43.299Z,-0.28
2023-01-22T10:33:43.282Z,0
2023-01-22T10:34:43.396Z,0
2023-01-22T10:35:43.283Z,-1
2023-01-22T10:36:43.280Z,-1.67
2023-01-22T10:37:43.280Z,-2.28
2023-01-22T10:38:43.284Z,-2.72
2023-01-22T10:39:43.293Z,-3.28
2023-01-22T10:40:43.276Z,-3.89
2023-01-22T10:41:43.292Z,-3.89
2023-01-22T10:42:43.277Z,-4.06
2023-01-22T10:43:43.286Z,-4.06
2023-01-22T10:44:43.289Z,-3.89
2023-01-22T10:45:43.283Z,-4.06
2023-01-22T10:46:43.288Z,-3.89
2023-01-22T10:47:43.282Z,-3.89
2023-01-22T10:48:43.281Z,-4.06
2023-01-22T10:49:43.284Z,-3.89
2023-01-22T10:50:43.402Z,-3.72
2023-01-22T10:51:43.330Z,-3.44
2023-01-22T10:52:43.297Z,-3.44
2023-01-22T10:53:43.283Z,-3.44
2023-01-22T10:54:43.285Z,-3.44
2023-01-22T10:55:43.291Z,-3.06
2023-01-22T10:56:43.287Z,-3.06
2023-01-22T10:57:43.292Z,-2.61
2023-01-22T10:58:43.295Z,-2.89
2023-01-22T10:59:43.286Z,-2.17
2023-01-22T11:00:51.734Z,-1.67
2023-01-22T11:01:43.443Z,-1.67
2023-01-22T11:02:43.400Z,-1.28
2023-01-22T11:03:43.280Z,-1
2023-01-22T11:04:43.292Z,-1.44
2023-01-22T11:05:43.276Z,-1.11
2023-01-22T11:06:43.402Z,-1.56
2023-01-22T11:07:43.277Z,-1.28
2023-01-22T11:08:43.291Z,-1.56
2023-01-22T11:09:43.292Z,-1.56
2023-01-22T11:10:43.298Z,-1.28
2023-01-22T11:11:43.290Z,0.17
2023-01-22T11:12:43.282Z,0.44
2023-01-22T11:13:43.284Z,-0.39
2023-01-22T11:14:43.296Z,-0.28
2023-01-22T11:15:43.303Z,-0.28
2023-01-22T11:16:43.302Z,0.61
2023-01-22T11:17:43.291Z,1.17
2023-01-22T11:18:43.298Z,1.33
2023-01-22T11:19:45.829Z,0.61
2023-01-22T11:20:43.299Z,-0.28
2023-01-22T11:21:43.297Z,-0.39
2023-01-22T11:22:43.407Z,-1.28
2023-01-22T11:23:43.295Z,-1.56
2023-01-22T11:24:43.299Z,-2.44
2023-01-22T11:25:43.285Z,-2.61
2023-01-22T11:26:43.307Z,-2.89
2023-01-22T11:27:43.290Z,-2.89
2023-01-22T11:28:43.311Z,-2.61
2023-01-22T11:29:43.296Z,-2.72
2023-01-22T11:30:43.380Z,-2.28
2023-01-22T11:31:43.372Z,-2.28
2023-01-22T11:32:43.298Z,-2.17
2023-01-22T11:33:43.292Z,-2.17
2023-01-22T11:34:43.323Z,-2.28
2023-01-22T11:35:43.301Z,-2.61
2023-01-22T11:36:43.295Z,-2.61
2023-01-22T11:37:43.285Z,-2.61
2023-01-22T11:38:43.414Z,-2.72
2023-01-22T11:39:43.292Z,-3.06
2023-01-22T11:40:43.302Z,-3.06
2023-01-22T11:41:43.299Z,-2.89
2023-01-22T11:42:43.292Z,-2.89
2023-01-22T11:43:43.300Z,-3.06
2023-01-22T11:44:43.290Z,-2.89
2023-01-22T11:45:43.290Z,-2.44
2023-01-22T11:46:43.302Z,-2.61
2023-01-22T11:47:43.315Z,-2.44
2023-01-22T11:48:43.293Z,-2.17
2023-01-22T11:49:43.289Z,-2.28
2023-01-22T11:50:43.291Z,-2.17
2023-01-22T11:51:43.287Z,-1.83
2023-01-22T11:52:43.288Z,-1.67
2023-01-22T11:53:43.301Z,-1.56
2023-01-22T11:54:43.414Z,-1.44
2023-01-22T11:55:43.309Z,-1.28
2023-01-22T11:56:43.310Z,-1.28
2023-01-22T11:57:43.302Z,-1.44
2023-01-22T11:58:43.300Z,-1.28
2023-01-22T11:59:43.302Z,-1.11
2023-01-22T12:00:43.301Z,-1
2023-01-22T12:01:43.301Z,-1.11
2023-01-22T12:02:43.410Z,-1.28
2023-01-22T12:03:43.321Z,-1.56
2023-01-22T12:04:43.319Z,-1.56
2023-01-22T12:05:43.301Z,-1.44
2023-01-22T12:06:43.345Z,-1.67
2023-01-22T12:07:43.292Z,-1.67
2023-01-22T12:08:43.294Z,-2.17
2023-01-22T12:09:43.302Z,-2.17
2023-01-22T12:10:43.418Z,-2.72
2023-01-22T12:11:43.296Z,-2.44
2023-01-22T12:12:43.308Z,-2
2023-01-22T12:13:43.299Z,-2
2023-01-22T12:14:43.309Z,-2
2023-01-22T12:15:43.365Z,-1.67
2023-01-22T12:16:43.316Z,-1.44
2023-01-22T12:17:43.316Z,-1.44
2023-01-22T12:18:43.322Z,-1.44
2023-01-22T12:19:43.310Z,-1.28
2023-01-22T12:20:43.337Z,-2
2023-01-22T12:21:43.329Z,-2
2023-01-22T12:22:43.306Z,-1.67
2023-01-22T12:23:43.320Z,-1.56
2023-01-22T12:24:43.316Z,-1.56
2023-01-22T12:25:43.315Z,-1.44
2023-01-22T12:26:43.426Z,-1.67
2023-01-22T12:27:43.316Z,-1.67
2023-01-22T12:28:43.355Z,-1.83
2023-01-22T12:29:43.326Z,-1.67
2023-01-22T12:30:43.380Z,-1.67
2023-01-22T12:31:43.348Z,-1.67
2023-01-22T12:32:43.326Z,-1.67
2023-01-22T12:33:43.336Z,-1.67
2023-01-22T12:34:43.334Z,-1.56
2023-01-22T12:35:43.321Z,-1.44
2023-01-22T12:36:43.326Z,-1.56
2023-01-22T12:37:43.355Z,-1.67
2023-01-22T12:38:43.349Z,-1.56
2023-01-22T12:39:43.338Z,-1.56
2023-01-22T12:40:43.327Z,-1.67
2023-01-22T12:41:43.332Z,-1.83
2023-01-22T12:42:43.446Z,-2.17
2023-01-22T12:43:43.333Z,-2
2023-01-22T12:44:43.333Z,-2.44
2023-01-22T12:45:43.335Z,-2.17
2023-01-22T12:46:43.402Z,-2.17
2023-01-22T12:47:43.348Z,-2.28
2023-01-22T12:48:43.343Z,-1.28
2023-01-22T12:49:43.344Z,-0.83
2023-01-22T12:50:43.356Z,-0.83
2023-01-22T12:51:43.357Z,0
2023-01-22T12:52:43.371Z,0
2023-01-22T12:53:43.355Z,-0.28
2023-01-22T12:54:43.345Z,0.44
2023-01-22T12:55:44.365Z,0.44
2023-01-22T12:56:43.358Z,1.06
2023-01-22T12:57:43.355Z,0.89
2023-01-22T12:58:43.466Z,-0.17
2023-01-22T12:59:43.352Z,-0.39
2023-01-22T13:00:43.392Z,-0.83